Time;durP1;ratioP1;P1;durP2;ratioP2;P2;SDS_P1;SDS_P2;PMS_P1;PMS_P2;Temp;Humidity;BMP_temperature;BMP_pressure;BME280_temperature;BME280_humidity;BME280_pressure;Samples;Min_cycle;Max_cycle;Signal;HPM_P1;HPM_P2
2021/03/07 00:00:56;;;;;;;15.13;8.30;;;-5.50;99.90;;;;;;5063105;28;20486;-83
2021/03/07 00:03:22;;;;;;;12.23;8.15;;;-5.50;99.90;;;;;;5063913;28;20144;-83
2021/03/07 00:05:49;;;;;;;14.20;7.47;;;-5.40;99.90;;;;;;5066485;28;20049;-82
2021/03/07 00:08:16;;;;;;;13.65;7.78;;;-5.40;99.90;;;;;;5065242;28;20045;-83
2021/03/07 00:10:42;;;;;;;13.63;7.72;;;-5.50;99.90;;;;;;5064527;28;20069;-82
2021/03/07 00:13:10;;;;;;;19.17;8.55;;;-5.50;99.90;;;;;;5066507;28;20049;-83
2021/03/07 00:15:37;;;;;;;16.45;8.18;;;-5.60;99.90;;;;;;5069343;28;20049;-82
2021/03/07 00:18:03;;;;;;;17.08;8.07;;;-5.50;99.90;;;;;;5059501;28;20081;-82
2021/03/07 00:20:29;;;;;;;12.88;8.55;;;-5.50;99.90;;;;;;5055871;28;20536;-82
2021/03/07 00:22:56;;;;;;;12.75;8.18;;;-5.60;99.90;;;;;;5056866;28;20128;-82
2021/03/07 00:25:24;;;;;;;15.15;8.20;;;-5.80;99.90;;;;;;5056464;28;20072;-83
2021/03/07 00:27:50;;;;;;;12.88;7.63;;;-5.80;99.90;;;;;;5058462;28;20136;-82
2021/03/07 00:30:17;;;;;;;13.10;7.35;;;-5.70;99.90;;;;;;5058315;28;20081;-82
2021/03/07 00:32:45;;;;;;;11.85;7.22;;;-5.70;99.90;;;;;;5058168;28;20059;-82
2021/03/07 00:35:12;;;;;;;12.48;7.90;;;-5.80;99.90;;;;;;5057730;28;20041;-82
2021/03/07 00:37:39;;;;;;;11.38;7.15;;;-5.70;99.90;;;;;;5059309;28;20080;-83
2021/03/07 00:40:07;;;;;;;11.93;7.57;;;-5.70;99.90;;;;;;5059752;28;20049;-83
2021/03/07 00:42:33;;;;;;;16.00;8.57;;;-5.60;99.90;;;;;;5057656;28;20045;-82
2021/03/07 00:44:59;;;;;;;17.23;9.02;;;-5.60;99.90;;;;;;5057082;28;20127;-83
2021/03/07 00:47:26;;;;;;;13.93;8.02;;;-5.50;99.90;;;;;;5057744;28;20068;-83
2021/03/07 00:49:52;;;;;;;19.45;8.95;;;-5.40;99.90;;;;;;5057558;28;20072;-82
2021/03/07 00:52:19;;;;;;;16.73;8.82;;;-5.40;99.90;;;;;;5060447;28;20045;-83
2021/03/07 00:54:45;;;;;;;15.75;8.02;;;-5.40;99.90;;;;;;5061324;28;20045;-83
2021/03/07 00:57:11;;;;;;;12.48;8.20;;;-5.30;99.90;;;;;;5062129;28;20073;-82
2021/03/07 00:59:37;;;;;;;13.60;7.85;;;-5.30;99.90;;;;;;5063526;28;20071;-83
2021/03/07 01:02:04;;;;;;;16.63;8.10;;;-5.40;99.90;;;;;;5062482;28;20418;-82
2021/03/07 01:04:30;;;;;;;15.55;7.50;;;-5.50;99.90;;;;;;5058003;28;20053;-82
2021/03/07 01:06:56;;;;;;;14.25;7.63;;;-5.60;99.90;;;;;;5058115;28;20049;-82
2021/03/07 01:09:23;;;;;;;13.57;8.40;;;-5.70;99.90;;;;;;5058425;28;20071;-82
2021/03/07 01:12:05;;;;;;;12.13;7.55;;;-5.70;99.90;;;;;;5057926;28;20052;-83
2021/03/07 01:14:32;;;;;;;11.70;7.20;;;-5.70;99.90;;;;;;5057127;28;20183;-82
2021/03/07 01:16:58;;;;;;;11.50;6.95;;;-5.90;99.90;;;;;;5058624;28;20124;-82
2021/03/07 01:19:31;;;;;;;12.02;7.00;;;-6.00;99.90;;;;;;5057671;28;20055;-82
2021/03/07 01:21:58;;;;;;;17.40;7.97;;;-6.00;99.90;;;;;;5057670;28;20509;-82
2021/03/07 01:24:24;;;;;;;12.52;7.93;;;-6.10;99.90;;;;;;5057091;28;20045;-83
2021/03/07 01:26:50;;;;;;;12.27;7.15;;;-6.10;99.90;;;;;;5056809;28;20131;-83
2021/03/07 01:29:16;;;;;;;14.20;8.52;;;-6.10;99.90;;;;;;5056664;28;20083;-82
2021/03/07 01:31:43;;;;;;;14.02;7.38;;;-6.10;99.90;;;;;;5056729;28;20064;-83
2021/03/07 01:34:09;;;;;;;17.27;9.32;;;-6.20;99.90;;;;;;5057720;28;20469;-83
2021/03/07 01:36:35;;;;;;;15.05;9.25;;;-6.20;99.90;;;;;;5057121;28;20570;-83
2021/03/07 01:39:03;;;;;;;17.13;8.48;;;-6.10;99.90;;;;;;5058084;28;20119;-83
2021/03/07 01:41:29;;;;;;;16.45;8.20;;;-6.20;99.90;;;;;;5056682;28;20136;-83
2021/03/07 01:43:55;;;;;;;15.73;8.98;;;-6.30;99.90;;;;;;5064445;28;20053;-83
2021/03/07 01:46:23;;;;;;;20.63;9.90;;;-6.20;99.90;;;;;;5066473;28;20071;-82
2021/03/07 01:48:49;;;;;;;15.68;8.25;;;-6.30;99.90;;;;;;5061540;28;20049;-82
2021/03/07 01:51:17;;;;;;;13.45;8.13;;;-6.20;99.90;;;;;;5055471;28;20049;-82
2021/03/07 01:53:43;;;;;;;12.02;7.85;;;-6.30;99.90;;;;;;5056732;28;20091;-82
2021/03/07 01:56:10;;;;;;;12.88;7.95;;;-6.30;99.90;;;;;;5055591;28;20056;-80
2021/03/07 01:58:38;;;;;;;16.58;9.27;;;-6.40;99.90;;;;;;5055515;28;20057;-82
2021/03/07 02:01:06;;;;;;;14.38;8.70;;;-6.40;99.90;;;;;;5056291;28;20094;-82
2021/03/07 02:03:32;;;;;;;15.45;9.00;;;-6.40;99.90;;;;;;5054768;28;20045;-82
2021/03/07 02:05:59;;;;;;;18.65;9.00;;;-6.50;99.90;;;;;;5055530;28;20053;-82
2021/03/07 02:08:25;;;;;;;18.98;8.88;;;-6.50;99.90;;;;;;5056926;28;20071;-82
2021/03/07 02:10:56;;;;;;;16.17;8.63;;;-6.50;99.90;;;;;;5056728;28;20053;-82
2021/03/07 02:13:33;;;;;;;18.63;8.10;;;-6.50;99.90;;;;;;5055701;28;20141;-82
2021/03/07 02:16:11;;;;;;;16.10;9.48;;;-6.60;99.90;;;;;;5056873;28;20128;-83
2021/03/07 02:18:39;;;;;;;17.60;9.00;;;-6.60;99.90;;;;;;5055555;28;20497;-82
2021/03/07 02:21:18;;;;;;;13.55;7.88;;;-6.60;99.90;;;;;;5055546;28;20052;-83
2021/03/07 02:24:05;;;;;;;14.05;7.93;;;-6.60;99.90;;;;;;5055790;28;20051;-83
2021/03/07 02:26:34;;;;;;;12.50;7.25;;;-6.50;99.90;;;;;;5055627;28;20068;-83
2021/03/07 02:29:03;;;;;;;9.10;6.80;;;-6.60;99.90;;;;;;5056752;28;20104;-83
2021/03/07 02:31:30;;;;;;;13.57;7.97;;;-6.50;99.90;;;;;;5057263;28;20053;-84
2021/03/07 02:34:17;;;;;;;16.98;7.65;;;-6.50;99.90;;;;;;5057792;28;20124;-83
2021/03/07 02:36:52;;;;;;;12.32;7.38;;;-6.60;99.90;;;;;;5055568;28;20487;-83
2021/03/07 02:39:27;;;;;;;14.75;7.15;;;-6.70;99.90;;;;;;5058654;28;20048;-82
2021/03/07 02:41:58;;;;;;;13.50;7.57;;;-6.80;99.90;;;;;;5060588;28;20048;-83
2021/03/07 02:44:28;;;;;;;16.10;7.15;;;-6.80;99.90;;;;;;5057014;28;20077;-83
2021/03/07 02:46:55;;;;;;;10.30;7.00;;;-6.80;99.90;;;;;;5053956;28;20053;-80
2021/03/07 02:49:23;;;;;;;9.95;7.28;;;-6.70;99.90;;;;;;5053870;28;20041;-82
2021/03/07 02:51:50;;;;;;;11.90;7.00;;;-6.70;99.90;;;;;;5053716;28;20069;-82
2021/03/07 02:54:19;;;;;;;12.85;6.57;;;-6.70;99.90;;;;;;5053647;28;20088;-83
2021/03/07 02:56:51;;;;;;;12.68;7.75;;;-6.70;99.90;;;;;;5053191;28;20041;-82
2021/03/07 02:59:20;;;;;;;11.45;7.47;;;-6.70;99.90;;;;;;5053070;28;20132;-82
2021/03/07 03:01:52;;;;;;;13.45;7.07;;;-6.80;99.90;;;;;;5053594;28;20128;-83
2021/03/07 03:04:21;;;;;;;13.98;7.63;;;-7.00;99.90;;;;;;5053722;28;20143;-82
2021/03/07 03:06:49;;;;;;;15.88;7.93;;;-6.90;99.90;;;;;;5053085;28;20414;-83
2021/03/07 03:09:16;;;;;;;13.82;8.40;;;-6.90;99.90;;;;;;5054757;28;20085;-82
2021/03/07 03:11:43;;;;;;;15.40;8.30;;;-6.80;99.90;;;;;;5053370;28;20072;-82
2021/03/07 03:14:13;;;;;;;12.05;7.30;;;-6.80;99.90;;;;;;5053231;28;20132;-83
2021/03/07 03:16:44;;;;;;;10.85;7.40;;;-6.80;99.90;;;;;;5054730;28;20540;-82
2021/03/07 03:19:11;;;;;;;13.90;7.45;;;-6.80;99.90;;;;;;5054392;28;20052;-82
2021/03/07 03:21:40;;;;;;;11.98;7.30;;;-6.80;99.90;;;;;;5053307;28;20052;-83
2021/03/07 03:24:10;;;;;;;8.45;5.82;;;-6.90;99.90;;;;;;5052964;28;20049;-82
2021/03/07 03:26:36;;;;;;;11.55;7.05;;;-7.00;99.90;;;;;;5052904;28;20053;-83
2021/03/07 03:29:04;;;;;;;9.60;6.13;;;-7.00;99.90;;;;;;5053038;28;20045;-82
2021/03/07 03:31:32;;;;;;;11.52;6.45;;;-7.00;99.90;;;;;;5054420;28;20136;-82
2021/03/07 03:33:59;;;;;;;13.40;7.10;;;-7.00;99.90;;;;;;5053828;28;20052;-80
2021/03/07 03:36:25;;;;;;;10.10;6.32;;;-7.00;99.90;;;;;;5053481;28;20067;-80
2021/03/07 03:38:55;;;;;;;13.32;6.50;;;-6.90;99.90;;;;;;5055001;28;20407;-83
2021/03/07 03:41:24;;;;;;;12.73;6.38;;;-6.90;99.90;;;;;;5054619;28;20045;-82
2021/03/07 03:43:55;;;;;;;11.80;6.50;;;-6.90;99.90;;;;;;5052710;28;20506;-83
2021/03/07 03:46:25;;;;;;;10.70;6.75;;;-6.90;99.90;;;;;;5053089;28;20056;-83
2021/03/07 03:48:55;;;;;;;13.50;7.50;;;-6.80;99.90;;;;;;5054419;28;20049;-82
2021/03/07 03:51:24;;;;;;;13.25;7.65;;;-6.70;99.90;;;;;;5054550;28;20102;-82
2021/03/07 03:53:52;;;;;;;11.00;6.90;;;-6.60;99.90;;;;;;5054602;28;20095;-83
2021/03/07 03:56:22;;;;;;;10.15;6.25;;;-6.60;99.90;;;;;;5052959;28;20080;-82
2021/03/07 03:58:50;;;;;;;12.18;6.80;;;-6.60;99.90;;;;;;5053020;28;20045;-80
2021/03/07 04:01:19;;;;;;;11.30;5.85;;;-6.70;99.90;;;;;;5053175;28;20139;-82
2021/03/07 04:03:52;;;;;;;10.48;6.22;;;-6.70;99.90;;;;;;5053037;28;20513;-82
2021/03/07 04:06:28;;;;;;;11.95;6.38;;;-6.70;99.90;;;;;;5053998;28;20103;-82
2021/03/07 04:08:55;;;;;;;11.52;6.70;;;-6.80;99.90;;;;;;5052632;28;20087;-84
2021/03/07 04:11:23;;;;;;;19.33;7.53;;;-6.90;99.90;;;;;;5052781;28;20568;-83
2021/03/07 04:13:50;;;;;;;13.82;7.38;;;-6.80;99.90;;;;;;5052869;28;20064;-84
2021/03/07 04:16:17;;;;;;;9.70;6.68;;;-6.80;99.90;;;;;;5053229;28;20487;-82
2021/03/07 04:18:46;;;;;;;12.98;5.78;;;-6.90;99.90;;;;;;5053115;28;20049;-83
2021/03/07 04:21:13;;;;;;;10.55;6.15;;;-7.00;99.90;;;;;;5053992;28;20488;-82
2021/03/07 04:23:39;;;;;;;7.05;5.57;;;-7.10;99.90;;;;;;5053125;28;20053;-82
2021/03/07 04:26:06;;;;;;;10.65;6.20;;;-7.20;99.90;;;;;;5054448;28;20049;-83
2021/03/07 04:28:33;;;;;;;10.07;5.57;;;-7.20;99.90;;;;;;5058101;28;20502;-83
2021/03/07 04:31:00;;;;;;;12.88;5.70;;;-7.20;99.90;;;;;;5056927;28;20045;-83
2021/03/07 04:33:26;;;;;;;9.68;5.93;;;-7.30;99.90;;;;;;5057237;28;20098;-83
2021/03/07 04:35:53;;;;;;;10.93;6.13;;;-7.30;99.90;;;;;;5058048;28;20091;-83
2021/03/07 04:38:21;;;;;;;11.60;6.55;;;-7.30;99.90;;;;;;5056975;28;20490;-82
2021/03/07 04:40:47;;;;;;;9.02;6.18;;;-7.40;99.90;;;;;;5058340;28;20132;-83
2021/03/07 04:43:18;;;;;;;12.93;7.18;;;-7.30;99.90;;;;;;5056921;28;20045;-82
2021/03/07 04:45:44;;;;;;;10.30;6.38;;;-7.30;99.90;;;;;;5056695;28;20498;-83
2021/03/07 04:48:11;;;;;;;10.32;6.45;;;-7.20;99.90;;;;;;5056941;28;20053;-82
2021/03/07 04:50:37;;;;;;;12.02;5.85;;;-7.30;99.90;;;;;;5056826;28;20512;-83
2021/03/07 04:53:04;;;;;;;12.15;6.20;;;-7.40;99.90;;;;;;5058707;28;20061;-83
2021/03/07 04:55:30;;;;;;;9.88;6.10;;;-7.50;99.90;;;;;;5057345;28;20071;-83
2021/03/07 04:57:56;;;;;;;12.00;6.88;;;-7.50;99.90;;;;;;5056802;28;20052;-84
2021/03/07 05:00:23;;;;;;;10.95;6.40;;;-7.40;99.90;;;;;;5057150;28;20045;-83
2021/03/07 05:02:50;;;;;;;11.52;5.70;;;-7.40;99.90;;;;;;5057327;28;20101;-84
2021/03/07 05:05:16;;;;;;;9.73;6.28;;;-7.40;99.90;;;;;;5059468;28;20094;-83
2021/03/07 05:07:43;;;;;;;12.43;6.80;;;-7.40;99.90;;;;;;5062779;28;20080;-83
2021/03/07 05:10:10;;;;;;;18.10;7.32;;;-7.50;99.90;;;;;;5063970;28;20053;-83
2021/03/07 05:12:36;;;;;;;11.43;6.13;;;-7.50;99.90;;;;;;5058789;28;20095;-83
2021/03/07 05:15:07;;;;;;;9.93;6.32;;;-7.50;99.90;;;;;;5056717;28;20045;-82
2021/03/07 05:17:34;;;;;;;15.05;5.82;;;-7.40;99.90;;;;;;5057290;28;20055;-82
2021/03/07 05:20:02;;;;;;;15.05;6.22;;;-7.40;99.90;;;;;;5057627;28;20462;-83
2021/03/07 05:22:28;;;;;;;10.82;5.30;;;-7.50;99.90;;;;;;5057472;28;20099;-83
2021/03/07 05:24:55;;;;;;;8.43;5.07;;;-7.40;99.90;;;;;;5056281;28;20443;-83
2021/03/07 05:27:21;;;;;;;9.23;6.32;;;-7.50;99.90;;;;;;5056442;28;20076;-83
2021/03/07 05:29:48;;;;;;;18.08;6.95;;;-7.60;99.90;;;;;;5056064;28;20056;-82
2021/03/07 05:32:14;;;;;;;11.98;6.90;;;-7.40;99.90;;;;;;5056095;28;20053;-83
2021/03/07 05:34:53;;;;;;;15.25;7.88;;;-7.40;99.90;;;;;;5057526;28;20486;-82
2021/03/07 05:37:38;;;;;;;17.27;6.80;;;-7.40;99.90;;;;;;5057034;28;20407;-81
2021/03/07 05:40:28;;;;;;;;;;;;;;;;;;;;;
2021/03/07 05:43:48;;;;;;;10.60;7.05;;;-7.40;99.90;;;;;;5057242;28;20454;-83
2021/03/07 05:46:33;;;;;;;15.68;7.38;;;-7.50;99.90;;;;;;5016424;28;20053;-83
2021/03/07 05:49:27;;;;;;;10.90;6.22;;;-7.50;99.90;;;;;;5056314;28;20045;-83
2021/03/07 05:52:26;;;;;;;11.38;6.95;;;-7.50;99.90;;;;;;5057474;28;20055;-84
2021/03/07 05:55:16;;;;;;;11.95;7.22;;;-7.50;99.90;;;;;;5057379;28;20041;-83
2021/03/07 05:58:37;;;;;;;;;;;;;;;;;;;;;
2021/03/07 06:07:48;;;;;;;18.08;7.45;;;-7.60;99.90;;;;;;5050575;28;20053;-82
2021/03/07 06:10:44;;;;;;;16.40;7.25;;;-7.60;99.90;;;;;;5056555;28;20064;-82
2021/03/07 06:13:25;;;;;;;13.27;8.55;;;-7.50;99.90;;;;;;5055777;28;20053;-82
2021/03/07 06:16:15;;;;;;;14.13;7.47;;;-7.40;99.90;;;;;;5055836;28;20140;-80
2021/03/07 06:18:51;;;;;;;11.38;7.35;;;-7.30;99.90;;;;;;5056039;28;20573;-82
2021/03/07 06:21:38;;;;;;;16.30;7.93;;;-7.30;99.90;;;;;;5055059;28;20540;-82
2021/03/07 06:24:41;;;;;;;19.83;8.15;;;-7.30;99.90;;;;;;5056245;28;20115;-82
2021/03/07 06:27:19;;;;;;;22.00;8.15;;;-7.30;99.90;;;;;;5059128;28;20045;-83
2021/03/07 06:29:58;;;;;;;17.63;7.75;;;-7.20;99.90;;;;;;5057944;28;20044;-83
2021/03/07 06:32:30;;;;;;;16.55;8.65;;;-7.20;99.90;;;;;;5057524;28;20095;-82
2021/03/07 06:34:58;;;;;;;16.65;8.27;;;-7.20;99.90;;;;;;5040122;28;20048;-82
2021/03/07 06:37:28;;;;;;;16.48;6.97;;;-7.10;99.90;;;;;;5055693;28;20136;-82
2021/03/07 06:39:57;;;;;;;16.65;7.35;;;-7.00;99.90;;;;;;5054811;28;20055;-84
2021/03/07 06:42:24;;;;;;;13.65;7.38;;;-6.90;99.90;;;;;;5055984;28;20049;-82
2021/03/07 06:45:03;;;;;;;12.82;7.68;;;-6.90;99.90;;;;;;5054014;28;20402;-82
2021/03/07 06:47:29;;;;;;;14.88;7.80;;;-6.80;99.90;;;;;;5059905;28;20456;-82
2021/03/07 06:50:14;;;;;;;16.83;8.73;;;-6.70;99.90;;;;;;5062208;28;20044;-83
2021/03/07 06:53:03;;;;;;;19.05;9.82;;;-6.70;99.90;;;;;;5060149;28;20098;-82
2021/03/07 06:55:43;;;;;;;16.13;8.27;;;-6.60;99.90;;;;;;5055161;28;20053;-82
2021/03/07 06:58:17;;;;;;;13.48;7.88;;;-6.40;99.90;;;;;;5055191;28;20495;-83
2021/03/07 07:00:46;;;;;;;14.90;8.63;;;-6.30;99.90;;;;;;5055859;28;20044;-83
2021/03/07 07:03:14;;;;;;;311.83;83.30;;;-6.40;99.90;;;;;;5054700;28;20079;-83
2021/03/07 07:05:49;;;;;;;538.05;180.48;;;-6.20;99.90;;;;;;5054944;28;20095;-82
2021/03/07 07:08:18;;;;;;;28.10;12.02;;;-6.20;99.90;;;;;;5056108;28;20116;-82
2021/03/07 07:11:04;;;;;;;26.13;10.40;;;-6.00;99.90;;;;;;5054623;28;20457;-84
2021/03/07 07:13:57;;;;;;;23.15;10.45;;;-6.00;99.90;;;;;;5056089;28;20048;-82
2021/03/07 07:16:35;;;;;;;19.27;8.85;;;-5.80;99.90;;;;;;5055380;28;20057;-83
2021/03/07 07:19:18;;;;;;;71.70;25.60;;;-5.80;99.90;;;;;;5055786;28;20514;-82
2021/03/07 07:21:44;;;;;;;28.30;11.77;;;-5.80;99.90;;;;;;5055195;28;20055;-83
2021/03/07 07:24:11;;;;;;;118.20;47.60;;;-5.80;99.90;;;;;;5055277;28;20071;-83
2021/03/07 07:26:46;;;;;;;36.83;16.02;;;-5.70;99.90;;;;;;5062873;28;20479;-83
2021/03/07 07:29:13;;;;;;;58.35;25.08;;;-5.50;99.90;;;;;;5073449;28;20076;-84
2021/03/07 07:31:52;;;;;;;88.63;48.83;;;-5.50;99.90;;;;;;5080358;28;20414;-82
2021/03/07 07:34:47;;;;;;;34.22;16.83;;;-5.20;99.90;;;;;;5086827;28;20041;-82
2021/03/07 07:37:32;;;;;;;49.40;16.15;;;-3.50;99.90;;;;;;5080345;28;20094;-83
2021/03/07 07:40:00;;;;;;;31.23;16.27;;;-1.90;99.90;;;;;;5077454;28;20052;-83
2021/03/07 07:42:34;;;;;;;48.53;37.40;;;-0.10;99.90;;;;;;5079520;28;20410;-83
2021/03/07 07:45:30;;;;;;;21.65;8.13;;;1.20;99.90;;;;;;5081044;28;20053;-83
2021/03/07 07:47:57;;;;;;;12.48;5.07;;;2.10;99.90;;;;;;5086178;28;20048;-83
2021/03/07 07:50:37;;;;;;;11.82;5.60;;;2.80;99.90;;;;;;5083424;28;20075;-82
2021/03/07 07:53:13;;;;;;;10.18;3.67;;;4.10;99.90;;;;;;5080713;28;20056;-82
2021/03/07 07:56:03;;;;;;;13.95;2.90;;;4.60;99.90;;;;;;5080990;28;20079;-83
2021/03/07 07:58:36;;;;;;;7.75;2.42;;;5.90;99.90;;;;;;5079746;28;20083;-82
2021/03/07 08:01:06;;;;;;;3.35;2.08;;;7.70;99.90;;;;;;5082781;28;20048;-82
2021/03/07 08:03:34;;;;;;;5.72;2.78;;;9.00;99.90;;;;;;5084311;28;20103;-82
2021/03/07 08:06:05;;;;;;;5.72;2.20;;;9.60;99.90;;;;;;5084665;28;20048;-83
2021/03/07 08:08:37;;;;;;;2.15;2.00;;;9.20;84.90;;;;;;5042969;22;20073;-83
2021/03/07 08:11:06;;;;;;;4.68;2.60;;;8.40;96.70;;;;;;5012465;28;20053;-83
2021/03/07 08:13:35;;;;;;;2.65;2.30;;;8.50;93.00;;;;;;5011780;28;20050;-82
2021/03/07 08:16:03;;;;;;;5.35;2.70;;;8.80;84.00;;;;;;5016893;28;20042;-84
2021/03/07 08:18:57;;;;;;;5.68;2.72;;;8.00;91.80;;;;;;5010807;28;20042;-84
2021/03/07 08:21:24;;;;;;;3.97;2.65;;;8.40;81.30;;;;;;5004107;28;20054;-83
2021/03/07 08:24:08;;;;;;;6.18;2.55;;;7.90;83.40;;;;;;5009816;28;20052;-83
2021/03/07 08:26:44;;;;;;;2.78;2.33;;;7.90;81.40;;;;;;5008737;28;20042;-84
2021/03/07 08:29:39;;;;;;;4.80;2.80;;;8.40;92.10;;;;;;5008043;28;20070;-84
2021/03/07 08:32:37;;;;;;;2.97;2.65;;;9.10;79.60;;;;;;5012542;28;20058;-83
2021/03/07 08:35:15;;;;;;;3.40;2.58;;;8.80;80.70;;;;;;5015117;28;20069;-84
2021/03/07 08:37:42;;;;;;;4.80;2.40;;;9.00;79.60;;;;;;5013035;28;20046;-84
2021/03/07 08:40:29;;;;;;;11.20;2.80;;;9.50;74.70;;;;;;5012489;28;20042;-83
2021/03/07 08:42:57;;;;;;;6.63;2.85;;;9.10;72.00;;;;;;5010009;28;20042;-84
2021/03/07 08:45:25;;;;;;;6.30;2.65;;;9.60;73.00;;;;;;5020788;28;20038;-84
2021/03/07 08:47:58;;;;;;;15.15;7.38;;;9.20;72.90;;;;;;5012196;28;20053;-85
2021/03/07 08:50:27;;;;;;;11.13;7.38;;;9.30;72.80;;;;;;5007221;28;20125;-85
2021/03/07 08:52:54;;;;;;;5.30;3.63;;;9.50;73.70;;;;;;5013234;28;20452;-84
2021/03/07 08:55:21;;;;;;;5.75;2.70;;;11.40;68.10;;;;;;5010598;28;20080;-84
2021/03/07 08:57:55;;;;;;;2.67;2.33;;;12.00;67.70;;;;;;5011534;28;20414;-82
2021/03/07 09:00:21;;;;;;;4.22;2.33;;;12.70;65.90;;;;;;5009261;28;20046;-82
2021/03/07 09:02:49;;;;;;;3.00;2.50;;;13.80;61.90;;;;;;5010245;28;20046;-83
2021/03/07 09:05:33;;;;;;;5.97;2.38;;;14.00;60.50;;;;;;5014667;28;20046;-83
2021/03/07 09:08:01;;;;;;;3.33;2.20;;;16.80;58.80;;;;;;5014197;28;20133;-82
2021/03/07 09:10:36;;;;;;;3.40;2.47;;;18.60;54.30;;;;;;5016373;28;20049;-83
2021/03/07 09:13:24;;;;;;;3.20;2.50;;;19.30;48.10;;;;;;5014667;28;20419;-84
2021/03/07 09:15:54;;;;;;;3.55;2.17;;;17.70;47.90;;;;;;5017348;28;20026;-85
2021/03/07 09:18:23;;;;;;;4.65;2.20;;;17.30;48.00;;;;;;5018511;28;20042;-84
2021/03/07 09:20:52;;;;;;;2.00;1.90;;;18.40;46.50;;;;;;5030572;28;20053;-85
2021/03/07 09:23:48;;;;;;;4.45;2.40;;;19.70;45.00;;;;;;5031659;28;20046;-85
2021/03/07 09:26:16;;;;;;;3.70;2.60;;;19.90;41.60;;;;;;5033219;28;20026;-85
2021/03/07 09:28:48;;;;;;;3.45;2.35;;;18.10;45.30;;;;;;5033427;28;20056;-85
2021/03/07 09:31:31;;;;;;;4.25;2.65;;;18.10;46.10;;;;;;5032099;28;20057;-85
2021/03/07 09:34:02;;;;;;;3.65;2.50;;;19.70;43.80;;;;;;5033058;28;20037;-85
2021/03/07 09:36:30;;;;;;;3.08;2.78;;;18.30;43.40;;;;;;5034112;28;20380;-84
2021/03/07 09:38:56;;;;;;;3.85;3.47;;;15.60;46.80;;;;;;5034102;28;20050;-85
2021/03/07 09:41:36;;;;;;;4.22;3.35;;;14.60;49.40;;;;;;5034971;28;20050;-85
2021/03/07 09:44:07;;;;;;;4.85;3.15;;;14.20;48.50;;;;;;5037296;28;20049;-85
2021/03/07 09:46:34;;;;;;;4.22;3.35;;;14.20;49.20;;;;;;5032190;28;20289;-85
2021/03/07 09:49:05;;;;;;;3.38;2.35;;;15.60;48.00;;;;;;5022560;28;20064;-85
2021/03/07 09:51:37;;;;;;;3.67;2.80;;;17.50;46.40;;;;;;5015264;28;20049;-85
2021/03/07 09:54:09;;;;;;;3.00;2.33;;;18.10;43.40;;;;;;5015201;28;20054;-85
2021/03/07 09:56:45;;;;;;;3.00;2.80;;;17.10;45.30;;;;;;5017602;28;20088;-84
2021/03/07 09:59:25;;;;;;;3.38;2.90;;;17.00;42.50;;;;;;5005918;28;20049;-85
2021/03/07 10:02:13;;;;;;;5.03;2.88;;;18.30;41.30;;;;;;5004792;28;20494;-85
2021/03/07 10:04:45;;;;;;;3.47;2.42;;;18.50;40.50;;;;;;5012456;28;20056;-87
2021/03/07 10:07:12;;;;;;;3.55;2.80;;;18.40;40.50;;;;;;5014498;28;20050;-85
2021/03/07 10:10:00;;;;;;;2.92;2.30;;;17.60;40.40;;;;;;5015842;28;20073;-86
2021/03/07 10:12:55;;;;;;;3.00;2.78;;;17.20;41.10;;;;;;5021665;28;20059;-85
2021/03/07 10:15:40;;;;;;;3.25;2.95;;;16.60;41.40;;;;;;5022548;28;20057;-85
2021/03/07 10:18:18;;;;;;;4.60;2.70;;;15.70;41.30;;;;;;5023287;28;20140;-86
2021/03/07 10:20:48;;;;;;;3.28;2.97;;;14.70;44.50;;;;;;5042436;28;20049;-85
2021/03/07 10:23:18;;;;;;;3.67;2.67;;;15.30;44.70;;;;;;5007942;28;20049;-84
2021/03/07 10:25:48;;;;;;;3.70;3.08;;;16.30;42.50;;;;;;5005962;28;20096;-84
2021/03/07 10:28:33;;;;;;;3.70;3.03;;;15.60;43.80;;;;;;5007697;28;20046;-84
2021/03/07 10:31:13;;;;;;;4.68;3.33;;;16.50;42.70;;;;;;4999969;28;20056;-82
2021/03/07 10:33:40;;;;;;;4.07;2.80;;;16.20;43.60;;;;;;5008447;28;20045;-84
2021/03/07 10:36:20;;;;;;;3.10;2.75;;;17.80;41.50;;;;;;5005982;28;20041;-84
2021/03/07 10:38:49;;;;;;;3.22;2.83;;;18.80;41.10;;;;;;5006414;28;20462;-84
2021/03/07 10:41:30;;;;;;;5.13;2.65;;;17.50;38.10;;;;;;5000910;28;20081;-85
2021/03/07 10:44:09;;;;;;;3.33;2.70;;;16.20;41.60;;;;;;5000039;28;20582;-84
2021/03/07 10:46:44;;;;;;;5.43;3.10;;;14.80;43.90;;;;;;5000218;28;20046;-84
2021/03/07 10:49:21;;;;;;;9.77;6.53;;;15.20;44.30;;;;;;5001160;28;20138;-85
2021/03/07 10:51:49;;;;;;;3.67;2.80;;;15.80;41.80;;;;;;4999212;28;20042;-85
2021/03/07 10:54:15;;;;;;;3.30;2.92;;;15.60;42.20;;;;;;4999723;28;20050;-84
2021/03/07 10:56:42;;;;;;;3.58;3.28;;;15.00;43.00;;;;;;5000001;28;20136;-84
2021/03/07 10:59:10;;;;;;;3.30;3.00;;;14.80;43.10;;;;;;5000239;28;20054;-84
2021/03/07 11:01:40;;;;;;;2.92;2.72;;;14.80;43.90;;;;;;5000513;28;20081;-85
2021/03/07 11:04:09;;;;;;;2.80;2.60;;;14.40;43.10;;;;;;5000593;28;20053;-85
2021/03/07 11:06:35;;;;;;;3.92;2.85;;;16.20;42.80;;;;;;5018077;28;20100;-84
2021/03/07 11:09:03;;;;;;;9.65;3.58;;;17.80;40.10;;;;;;5019224;28;20054;-85
2021/03/07 11:11:29;;;;;;;3.20;2.90;;;19.10;37.70;;;;;;5002539;28;20042;-84
2021/03/07 11:13:55;;;;;;;4.13;3.15;;;18.50;37.70;;;;;;5001306;28;20073;-85
2021/03/07 11:16:21;;;;;;;4.97;4.15;;;17.40;37.50;;;;;;5002963;28;20111;-85
2021/03/07 11:18:48;;;;;;;3.40;2.65;;;17.70;39.40;;;;;;5021081;28;20137;-84
2021/03/07 11:21:16;;;;;;;13.43;3.67;;;16.10;41.00;;;;;;5003730;28;20509;-85
2021/03/07 11:23:42;;;;;;;3.75;2.60;;;16.90;39.70;;;;;;5021046;28;20546;-85
2021/03/07 11:26:08;;;;;;;3.55;2.88;;;16.80;39.20;;;;;;5004641;28;20045;-85
2021/03/07 11:28:35;;;;;;;3.42;2.78;;;16.70;38.90;;;;;;5003982;28;20042;-85
2021/03/07 11:31:01;;;;;;;3.58;2.88;;;18.80;38.30;;;;;;5004702;28;20046;-84
2021/03/07 11:33:29;;;;;;;3.78;2.88;;;17.90;38.50;;;;;;5007188;28;20419;-85
2021/03/07 11:35:55;;;;;;;2.80;2.60;;;18.60;37.90;;;;;;5012635;28;20033;-85
2021/03/07 11:38:22;;;;;;;2.78;2.58;;;18.90;37.70;;;;;;5027253;28;20477;-84
2021/03/07 11:40:49;;;;;;;4.43;2.97;;;17.40;39.00;;;;;;5019928;28;20132;-84
2021/03/07 11:43:15;;;;;;;2.53;2.33;;;17.60;38.90;;;;;;5016413;28;20588;-84
2021/03/07 11:45:41;;;;;;;3.47;2.88;;;18.40;39.20;;;;;;5020653;28;20132;-85
2021/03/07 11:48:09;;;;;;;2.90;2.58;;;18.90;36.70;;;;;;5020886;28;20052;-85
2021/03/07 11:50:36;;;;;;;3.13;2.67;;;17.30;38.10;;;;;;5021190;28;20379;-85
2021/03/07 11:53:03;;;;;;;3.28;2.95;;;16.90;38.90;;;;;;5021723;28;20042;-84
2021/03/07 11:55:29;;;;;;;5.18;2.70;;;15.80;42.70;;;;;;5038546;28;20055;-85
2021/03/07 11:57:56;;;;;;;2.55;2.38;;;15.50;41.90;;;;;;5016577;28;20128;-85
2021/03/07 12:00:24;;;;;;;4.00;2.80;;;16.60;41.40;;;;;;5006174;28;20498;-85
2021/03/07 12:02:50;;;;;;;3.55;2.88;;;16.50;40.80;;;;;;4999871;28;20138;-85
2021/03/07 12:05:17;;;;;;;4.20;2.55;;;16.30;40.70;;;;;;4999842;28;20054;-85
2021/03/07 12:07:43;;;;;;;5.05;3.15;;;16.90;40.50;;;;;;5017223;28;20061;-84
2021/03/07 12:10:10;;;;;;;10.35;6.68;;;16.80;41.20;;;;;;5000209;28;20044;-86
2021/03/07 12:12:36;;;;;;;14.07;9.60;;;17.00;40.70;;;;;;5000717;28;20045;-85
2021/03/07 12:15:03;;;;;;;6.25;2.90;;;16.60;40.10;;;;;;5001324;28;20045;-85
2021/03/07 12:17:30;;;;;;;3.13;2.83;;;17.60;39.90;;;;;;5006018;28;20041;-85
2021/03/07 12:20:04;;;;;;;2.78;2.58;;;16.20;40.80;;;;;;5008725;28;20490;-85
2021/03/07 12:22:32;;;;;;;3.13;2.60;;;15.40;42.60;;;;;;5041739;28;20072;-84
2021/03/07 12:24:58;;;;;;;6.95;3.63;;;14.70;43.50;;;;;;5024638;28;20107;-85
2021/03/07 12:27:28;;;;;;;6.03;3.33;;;14.10;44.60;;;;;;5022082;28;20050;-85
2021/03/07 12:29:54;;;;;;;2.83;2.60;;;14.30;44.60;;;;;;5022762;28;20045;-85
2021/03/07 12:32:21;;;;;;;4.18;2.40;;;15.30;44.30;;;;;;5022774;28;20081;-84
2021/03/07 12:34:47;;;;;;;2.53;2.30;;;15.90;41.20;;;;;;5022131;28;20046;-85
2021/03/07 12:37:13;;;;;;;3.58;2.50;;;17.40;40.30;;;;;;5022735;28;20514;-84
2021/03/07 12:39:40;;;;;;;4.97;2.70;;;17.30;40.40;;;;;;5024239;28;20053;-85
2021/03/07 12:42:06;;;;;;;3.25;2.95;;;16.30;40.40;;;;;;5023810;28;20066;-85
2021/03/07 12:44:33;;;;;;;3.15;2.78;;;15.50;42.20;;;;;;5024887;28;20049;-85
2021/03/07 12:47:00;;;;;;;5.55;2.63;;;14.50;42.00;;;;;;5022262;28;20046;-85
2021/03/07 12:49:27;;;;;;;4.43;2.63;;;14.60;44.10;;;;;;5025937;28;20045;-84
2021/03/07 12:51:55;;;;;;;3.45;2.70;;;13.90;43.80;;;;;;5020263;28;20073;-84
2021/03/07 12:54:21;;;;;;;4.45;2.58;;;14.00;45.70;;;;;;5024028;28;20061;-84
2021/03/07 12:56:47;;;;;;;6.70;2.97;;;14.90;43.00;;;;;;5029123;28;20057;-85
2021/03/07 12:59:14;;;;;;;6.53;3.85;;;15.10;43.00;;;;;;5029742;28;20077;-85
2021/03/07 13:01:40;;;;;;;6.90;3.97;;;14.80;43.50;;;;;;5029910;28;20045;-85
2021/03/07 13:04:06;;;;;;;7.43;2.85;;;14.50;44.40;;;;;;5032421;28;20049;-85
2021/03/07 13:06:33;;;;;;;3.47;2.88;;;13.40;45.90;;;;;;5024871;28;20073;-84
2021/03/07 13:08:59;;;;;;;3.72;3.00;;;13.10;46.10;;;;;;5020519;28;20080;-84
2021/03/07 13:11:25;;;;;;;2.85;2.58;;;12.90;46.60;;;;;;5022360;28;20069;-85